Time;durP1;ratioP1;P1;durP2;ratioP2;P2;SDS_P1;SDS_P2;PMS_P1;PMS_P2;Temp;Humidity;BMP_temperature;BMP_pressure;BME280_temperature;BME280_humidity;BME280_pressure;Samples;Min_cycle;Max_cycle;Signal;HPM_P1;HPM_P2
2021/08/18 00:02:14;;;;;;;27.88;15.63;;;;;;;23.06;66.46;99272.72;5142050;27;20034;-68
2021/08/18 00:05:00;;;;;;;27.95;14.98;;;;;;;22.99;67.53;99279.47;5127988;27;20025;-68
2021/08/18 00:07:46;;;;;;;27.23;15.32;;;;;;;23.00;67.09;99273.22;5132987;27;20027;-68
2021/08/18 00:10:32;;;;;;;23.73;15.20;;;;;;;22.89;66.98;99270.59;5147324;27;20106;-67
2021/08/18 00:13:22;;;;;;;21.23;14.45;;;;;;;22.89;66.56;99266.13;5142319;27;20035;-67
2021/08/18 00:16:08;;;;;;;24.50;15.70;;;;;;;23.00;66.54;99261.78;5124294;28;20228;-67
2021/08/18 00:18:54;;;;;;;25.02;14.63;;;;;;;22.87;67.02;99262.78;5120382;28;20019;-67
2021/08/18 00:21:40;;;;;;;29.10;16.00;;;;;;;22.77;67.51;99274.19;5114605;28;20046;-68
2021/08/18 00:24:26;;;;;;;24.58;15.77;;;;;;;22.88;67.40;99261.81;5098420;28;20043;-65
2021/08/18 00:27:14;;;;;;;21.70;15.20;;;;;;;22.88;67.25;99271.53;5120718;28;20024;-68
2021/08/18 00:30:00;;;;;;;28.10;15.40;;;;;;;22.88;67.33;99264.44;5118505;28;20019;-68
2021/08/18 00:32:46;;;;;;;26.92;15.27;;;;;;;22.91;67.11;99272.13;5121151;28;20038;-68
2021/08/18 00:35:32;;;;;;;23.30;14.68;;;;;;;22.90;67.30;99265.19;5120865;28;20031;-68
2021/08/18 00:38:18;;;;;;;24.10;14.63;;;;;;;22.85;67.27;99263.88;5107550;28;20254;-66
2021/08/18 00:41:05;;;;;;;27.60;15.23;;;;;;;22.87;67.46;99262.78;5116627;28;20016;-66
2021/08/18 00:43:51;;;;;;;22.90;15.43;;;;;;;22.85;67.67;99263.88;5125452;28;20084;-66
2021/08/18 00:46:55;;;;;;;24.25;15.05;;;;;;;22.82;67.66;99259.66;5126580;28;20036;-64
2021/08/18 00:49:42;;;;;;;25.52;14.77;;;;;;;22.85;67.67;99263.88;5125111;28;20102;-65
2021/08/18 00:52:27;;;;;;;29.33;15.65;;;;;;;22.76;68.32;99268.09;5110507;28;20235;-65
2021/08/18 00:55:16;;;;;;;26.10;14.93;;;;;;;22.44;68.80;99221.28;5124297;28;20028;-67
2021/08/18 00:58:03;;;;;;;26.10;15.40;;;;;;;22.64;68.48;99263.75;5125406;28;20092;-66
2021/08/18 01:00:49;;;;;;;29.58;15.63;;;;;;;22.70;68.10;99258.00;5109531;28;20031;-66
2021/08/18 01:03:46;;;;;;;26.30;15.10;;;;;;;22.71;68.25;99259.69;5120700;28;20020;-65
2021/08/18 01:06:34;;;;;;;22.67;15.10;;;;;;;22.62;68.51;99271.81;5118227;28;20038;-66
2021/08/18 01:09:21;;;;;;;29.42;15.85;;;;;;;22.63;68.62;99262.06;5125806;28;20031;-66
2021/08/18 01:12:07;;;;;;;25.98;15.35;;;;;;;22.53;69.26;99249.63;5124950;28;20031;-66
2021/08/18 01:14:53;;;;;;;26.35;14.40;;;;;;;22.59;68.54;99258.84;5125920;28;20228;-66
2021/08/18 01:17:41;;;;;;;29.00;16.23;;;;;;;22.43;68.87;99246.00;5124360;28;20027;-65
2021/08/18 01:20:36;;;;;;;24.92;14.32;;;;;;;22.51;68.88;99253.31;5124635;28;20055;-66
2021/08/18 01:23:22;;;;;;;25.08;14.77;;;;;;;22.44;68.37;99249.50;5116298;28;20028;-66
2021/08/18 01:26:08;;;;;;;27.27;15.57;;;;;;;22.47;68.51;99246.59;5125449;28;20076;-66
2021/08/18 01:28:54;;;;;;;26.88;15.80;;;;;;;22.39;68.77;99255.13;5125450;28;20035;-66
2021/08/18 01:31:43;;;;;;;22.60;15.23;;;;;;;22.41;69.41;99253.19;5125602;28;20066;-65
2021/08/18 01:34:29;;;;;;;26.45;15.27;;;;;;;22.43;68.94;99248.63;5124792;28;20027;-65
2021/08/18 01:37:14;;;;;;;24.58;15.60;;;;;;;22.42;69.28;99236.41;5124168;28;20249;-66
2021/08/18 01:40:00;;;;;;;24.23;14.45;;;;;;;22.47;69.02;99247.44;5125353;28;20030;-65
2021/08/18 01:42:47;;;;;;;23.65;14.30;;;;;;;22.39;69.16;99236.66;5125342;28;20019;-65
2021/08/18 01:45:38;;;;;;;25.63;16.17;;;;;;;22.34;68.87;99234.34;5124584;28;20027;-66
2021/08/18 01:48:29;;;;;;;26.20;13.93;;;;;;;22.08;69.87;99203.88;5101693;28;20028;-66
2021/08/18 01:51:15;;;;;;;28.42;15.50;;;;;;;22.34;69.59;99246.72;5123681;28;20031;-66
2021/08/18 01:54:01;;;;;;;26.92;15.95;;;;;;;22.33;69.50;99245.03;5125151;28;20058;-66
2021/08/18 01:56:47;;;;;;;27.65;14.82;;;;;;;22.32;69.20;99245.97;5123955;28;20068;-66
2021/08/18 01:59:33;;;;;;;27.23;15.48;;;;;;;22.36;69.71;99247.44;5123679;28;20355;-66
2021/08/18 02:02:19;;;;;;;29.30;15.25;;;;;;;22.26;70.11;99249.09;5123947;28;20175;-66
2021/08/18 02:05:07;;;;;;;26.27;15.88;;;;;;;22.19;69.84;99239.00;5123156;28;20019;-67
2021/08/18 02:07:54;;;;;;;28.88;15.93;;;;;;;22.17;69.69;99233.00;5124840;28;20031;-66
2021/08/18 02:10:40;;;;;;;21.38;15.10;;;;;;;22.17;69.49;99246.19;5123478;28;20101;-67
2021/08/18 02:13:27;;;;;;;23.42;15.35;;;;;;;22.22;70.32;99256.41;5124519;28;20074;-67
2021/08/18 02:16:13;;;;;;;25.08;15.25;;;;;;;22.18;70.34;99253.16;5123688;28;20019;-67
2021/08/18 02:18:59;;;;;;;28.25;14.65;;;;;;;22.10;70.90;99254.69;5123326;28;20328;-67
2021/08/18 02:21:44;;;;;;;27.90;15.40;;;;;;;22.01;70.44;99257.06;5122972;28;20236;-68
2021/08/18 02:24:30;;;;;;;28.75;16.58;;;;;;;22.06;70.09;99256.72;5124596;28;20020;-67
2021/08/18 02:27:16;;;;;;;28.92;16.38;;;;;;;22.06;70.53;99257.56;5124429;28;20453;-67
2021/08/18 02:30:04;;;;;;;26.27;16.20;;;;;;;21.77;70.85;99214.94;5121132;28;20032;-65
2021/08/18 02:32:51;;;;;;;31.55;16.85;;;;;;;21.96;70.05;99253.09;5102492;28;20024;-66
2021/08/18 02:35:37;;;;;;;26.00;16.20;;;;;;;21.95;69.83;99239.09;5103263;28;20100;-66
2021/08/18 02:38:23;;;;;;;27.30;16.45;;;;;;;21.84;70.58;99244.34;5102593;28;20035;-66
2021/08/18 02:41:09;;;;;;;25.20;16.08;;;;;;;21.85;70.49;99249.50;5102750;28;20279;-67
2021/08/18 02:43:55;;;;;;;26.48;17.05;;;;;;;21.81;70.73;99248.03;5102604;28;20324;-67
2021/08/18 02:46:41;;;;;;;26.45;17.08;;;;;;;21.72;70.49;99246.13;5103224;28;20059;-66
2021/08/18 02:49:27;;;;;;;26.85;16.05;;;;;;;21.85;70.20;99248.66;5103883;28;20028;-66
2021/08/18 02:52:13;;;;;;;26.92;15.35;;;;;;;21.82;70.13;99256.78;5103791;28;20099;-65
2021/08/18 02:54:59;;;;;;;28.50;16.15;;;;;;;21.88;69.62;99258.97;5104023;28;20099;-66
2021/08/18 02:57:46;;;;;;;29.33;15.27;;;;;;;21.96;69.45;99253.97;5102128;28;20056;-66
2021/08/18 03:00:32;;;;;;;31.55;16.95;;;;;;;21.93;69.62;99264.72;5103838;28;20024;-66
2021/08/18 03:03:17;;;;;;;24.73;14.93;;;;;;;22.06;69.50;99262.84;5102636;28;20032;-66
2021/08/18 03:06:03;;;;;;;29.83;15.82;;;;;;;22.10;70.15;99255.53;5103051;28;20032;-66
2021/08/18 03:08:49;;;;;;;23.40;15.95;;;;;;;22.08;70.04;99251.34;5102073;28;20319;-65
2021/08/18 03:11:35;;;;;;;24.92;16.23;;;;;;;22.16;69.32;99260.34;5102770;28;20251;-66
2021/08/18 03:14:21;;;;;;;24.17;15.75;;;;;;;22.20;69.59;99266.22;5103093;28;20153;-66
2021/08/18 03:17:07;;;;;;;27.48;14.68;;;;;;;22.18;69.17;99253.16;5103096;28;20024;-65
2021/08/18 03:19:53;;;;;;;26.75;15.05;;;;;;;22.26;69.71;99264.91;5087814;28;20252;-66
2021/08/18 03:22:39;;;;;;;27.02;14.93;;;;;;;22.29;69.77;99254.13;5109721;27;20343;-65
2021/08/18 03:25:25;;;;;;;27.15;15.80;;;;;;;22.29;69.86;99262.03;5142933;27;20054;-66
2021/08/18 03:28:11;;;;;;;24.75;15.45;;;;;;;22.33;69.75;99267.00;5142378;27;20030;-66
2021/08/18 03:30:57;;;;;;;23.38;15.40;;;;;;;22.27;69.88;99248.97;5141466;27;20049;-66
2021/08/18 03:33:43;;;;;;;26.38;16.48;;;;;;;22.31;70.64;99258.31;5142375;27;20110;-66
2021/08/18 03:36:30;;;;;;;24.58;15.98;;;;;;;22.28;68.81;99260.38;5142824;28;20324;-66
2021/08/18 03:39:15;;;;;;;27.35;16.75;;;;;;;22.40;68.48;99257.66;5143049;28;20061;-66
2021/08/18 03:42:01;;;;;;;26.63;16.33;;;;;;;22.47;68.52;99268.56;5142889;28;20027;-65
2021/08/18 03:44:49;;;;;;;31.00;16.33;;;;;;;22.49;69.15;99266.66;5142623;28;20030;-66
2021/08/18 03:47:35;;;;;;;27.48;16.48;;;;;;;22.49;69.27;99266.66;5142581;28;20027;-65
2021/08/18 03:50:21;;;;;;;27.20;15.65;;;;;;;22.51;68.94;99248.88;5101088;28;20050;-67
2021/08/18 03:53:06;;;;;;;27.88;15.85;;;;;;;22.57;68.36;99256.34;5101723;28;20064;-65
2021/08/18 03:55:52;;;;;;;28.50;14.52;;;;;;;22.65;68.16;99252.25;5102180;28;20229;-66
2021/08/18 03:58:38;;;;;;;25.35;15.10;;;;;;;22.61;68.27;99258.72;5076923;28;20063;-66
2021/08/18 04:01:24;;;;;;;29.13;17.15;;;;;;;22.64;69.10;99251.41;5082234;28;20345;-65
2021/08/18 04:04:10;;;;;;;25.70;16.27;;;;;;;22.65;69.12;99249.63;5088473;28;20397;-66
2021/08/18 04:06:56;;;;;;;27.33;15.40;;;;;;;22.68;68.15;99254.66;5101556;28;20024;-66
2021/08/18 04:09:42;;;;;;;25.10;15.68;;;;;;;22.68;68.02;99252.84;5087569;28;20097;-66
2021/08/18 04:12:28;;;;;;;28.33;16.92;;;;;;;22.67;67.67;99247.69;5101958;28;20046;-66
2021/08/18 04:15:14;;;;;;;27.77;16.05;;;;;;;22.75;67.32;99246.09;5101295;28;20020;-67
2021/08/18 04:18:00;;;;;;;28.05;15.95;;;;;;;22.82;67.86;99251.75;5102009;28;20024;-67
2021/08/18 04:20:46;;;;;;;26.88;14.75;;;;;;;22.90;67.55;99251.13;5101375;28;20124;-67
2021/08/18 04:23:32;;;;;;;30.55;16.27;;;;;;;22.90;67.17;99243.19;5101801;28;20073;-66
2021/08/18 04:26:18;;;;;;;26.63;16.08;;;;;;;22.97;67.17;99238.28;5102790;28;20030;-65
2021/08/18 04:29:04;;;;;;;33.85;15.70;;;;;;;23.02;66.62;99242.22;5106403;28;20035;-66
2021/08/18 04:31:49;;;;;;;26.23;15.00;;;;;;;23.04;67.20;99242.94;5121716;28;20090;-68
2021/08/18 04:34:35;;;;;;;22.73;14.65;;;;;;;23.04;66.03;99242.94;5126202;28;20039;-70
2021/08/18 04:37:21;;;;;;;25.55;15.55;;;;;;;23.17;66.19;99240.16;5097617;28;20026;-70
2021/08/18 04:40:12;;;;;;;25.70;15.50;;;;;;;22.97;64.80;99190.72;5126324;28;20098;-68
2021/08/18 04:42:58;;;;;;;22.48;14.85;;;;;;;23.34;64.63;99236.16;5124140;28;20027;-69
2021/08/18 04:45:44;;;;;;;26.67;15.07;;;;;;;23.35;64.37;99237.84;5124992;28;20351;-69
2021/08/18 04:48:30;;;;;;;25.88;14.70;;;;;;;23.36;64.11;99231.59;5124649;28;20106;-70
2021/08/18 04:51:16;;;;;;;29.85;15.32;;;;;;;23.42;64.52;99246.09;5124815;28;20023;-70
2021/08/18 04:54:02;;;;;;;28.25;14.48;;;;;;;23.53;64.45;99235.47;5125389;28;20198;-69
2021/08/18 04:56:48;;;;;;;29.48;14.75;;;;;;;23.59;64.69;99234.97;5123870;28;20095;-69
2021/08/18 04:59:33;;;;;;;24.02;14.57;;;;;;;23.70;63.64;99241.16;5142421;27;20043;-68
2021/08/18 05:02:19;;;;;;;28.30;13.77;;;;;;;23.78;62.72;99244.00;5144381;27;20094;-65
2021/08/18 05:05:06;;;;;;;45.40;19.02;;;;;;;23.75;61.58;99239.81;5129506;27;20047;-67
2021/08/18 05:07:52;;;;;;;28.98;14.52;;;;;;;23.90;62.28;99224.50;5124417;28;20023;-70
2021/08/18 05:10:38;;;;;;;27.55;13.35;;;;;;;24.08;62.41;99229.19;5125004;28;20027;-70
2021/08/18 05:13:24;;;;;;;21.92;13.82;;;;;;;24.13;61.98;99229.66;5126195;28;20027;-70
2021/08/18 05:16:10;;;;;;;25.33;13.50;;;;;;;24.33;61.65;99229.72;5124895;28;20027;-69
2021/08/18 05:18:56;;;;;;;19.60;13.00;;;;;;;24.51;61.05;99229.94;5124624;28;20347;-70
2021/08/18 05:21:42;;;;;;;32.33;14.25;;;;;;;24.57;60.36;99232.91;5120797;28;20255;-71
2021/08/18 05:24:28;;;;;;;30.48;14.98;;;;;;;24.66;60.83;99220.69;5117225;28;20316;-72
2021/08/18 05:27:14;;;;;;;21.90;13.23;;;;;;;24.67;61.24;99224.16;5125494;28;20039;-73
2021/08/18 05:30:01;;;;;;;23.23;12.73;;;;;;;24.72;60.77;99219.31;5125707;28;20038;-72
2021/08/18 05:32:46;;;;;;;26.05;14.00;;;;;;;24.82;60.65;99222.81;5125828;28;20123;-72
2021/08/18 05:35:32;;;;;;;22.75;13.15;;;;;;;24.91;60.79;99231.75;5125312;28;20023;-72
2021/08/18 05:38:18;;;;;;;24.88;12.75;;;;;;;24.85;61.34;99214.59;5123523;28;20049;-73
2021/08/18 05:41:04;;;;;;;26.70;12.15;;;;;;;25.03;61.12;99227.19;5125459;28;20043;-73
2021/08/18 05:43:51;;;;;;;25.13;13.23;;;;;;;24.99;60.02;99222.16;5123837;28;20016;-73
2021/08/18 05:46:37;;;;;;;19.52;12.70;;;;;;;24.99;58.18;99216.84;5125335;28;20054;-73
2021/08/18 05:49:26;;;;;;;21.67;12.73;;;;;;;25.04;56.91;99220.91;5125319;28;20107;-72
2021/08/18 05:52:12;;;;;;;19.85;12.32;;;;;;;25.19;58.02;99216.06;5125340;28;20351;-72
2021/08/18 05:55:02;;;;;;;28.63;12.10;;;;;;;25.20;58.01;99200.00;5124959;28;20028;-72
2021/08/18 05:57:48;;;;;;;24.23;11.60;;;;;;;25.39;57.95;99215.09;5120210;28;20363;-72
2021/08/18 06:00:34;;;;;;;22.70;12.20;;;;;;;25.44;57.68;99214.66;5125031;28;20031;-72
2021/08/18 06:03:20;;;;;;;25.25;11.25;;;;;;;25.41;55.22;99212.31;5125107;28;20035;-73
2021/08/18 06:06:06;;;;;;;21.15;11.55;;;;;;;25.49;56.04;99223.06;5104313;28;20032;-73
2021/08/18 06:08:52;;;;;;;23.30;12.07;;;;;;;25.56;57.10;99221.50;5103280;28;20074;-73
2021/08/18 06:11:40;;;;;;;18.20;10.85;;;;;;;25.64;56.93;99219.00;5104231;28;20024;-72
2021/08/18 06:14:26;;;;;;;19.05;11.57;;;;;;;25.77;56.42;99228.50;5103577;28;20062;-73
2021/08/18 06:17:12;;;;;;;20.00;11.38;;;;;;;25.83;55.69;99227.91;5104082;28;20069;-72
2021/08/18 06:19:58;;;;;;;21.52;11.30;;;;;;;25.86;56.61;99219.66;5103011;28;20028;-72
2021/08/18 06:22:46;;;;;;;25.50;11.00;;;;;;;26.04;55.48;99233.06;5119363;28;20076;-72
2021/08/18 06:25:32;;;;;;;19.83;10.98;;;;;;;26.12;56.00;99230.53;5122443;28;20036;-72
2021/08/18 06:28:17;;;;;;;21.35;10.52;;;;;;;26.18;55.84;99231.75;5123432;28;20069;-72
2021/08/18 06:31:03;;;;;;;16.52;10.77;;;;;;;26.18;55.03;99224.66;5122391;28;20312;-73
2021/08/18 06:33:49;;;;;;;20.92;11.15;;;;;;;26.34;54.92;99236.47;5123066;28;20028;-72
2021/08/18 06:36:35;;;;;;;20.40;10.18;;;;;;;26.41;55.23;99234.03;5122655;28;20023;-72
2021/08/18 06:39:21;;;;;;;14.48;10.02;;;;;;;26.34;53.18;99234.66;5122609;28;20039;-72
2021/08/18 06:42:07;;;;;;;23.20;11.23;;;;;;;26.38;52.36;99242.31;5121301;28;20122;-73
2021/08/18 06:44:54;;;;;;;21.83;11.15;;;;;;;26.49;53.24;99232.34;5120382;28;20102;-72
2021/08/18 06:47:40;;;;;;;19.08;10.50;;;;;;;26.66;53.05;99233.38;5122058;28;20030;-72
2021/08/18 06:50:26;;;;;;;19.38;10.40;;;;;;;26.64;51.47;99230.03;5121819;28;20077;-72
2021/08/18 06:53:12;;;;;;;21.63;10.68;;;;;;;26.74;52.06;99226.53;5122385;28;20382;-72
2021/08/18 06:55:58;;;;;;;21.60;11.25;;;;;;;26.87;52.55;99229.66;5121350;28;20354;-71
2021/08/18 06:58:44;;;;;;;23.48;10.65;;;;;;;26.90;50.82;99226.69;5121858;28;20107;-71
2021/08/18 07:01:29;;;;;;;17.70;10.65;;;;;;;26.98;52.01;99226.81;5107412;28;20092;-72
2021/08/18 07:04:15;;;;;;;18.25;10.75;;;;;;;27.11;52.03;99220.28;5116218;28;20063;-72
2021/08/18 07:07:01;;;;;;;19.70;10.98;;;;;;;27.21;51.38;99221.88;5122600;28;20030;-72
2021/08/18 07:09:47;;;;;;;19.48;10.57;;;;;;;27.40;50.34;99220.06;5123866;28;20026;-71
2021/08/18 07:12:33;;;;;;;19.90;11.07;;;;;;;27.52;49.46;99218.00;5123434;28;20016;-76
2021/08/18 07:15:19;;;;;;;19.30;10.43;;;;;;;27.66;50.23;99211.31;5123135;28;20027;-73
2021/08/18 07:18:05;;;;;;;18.05;10.95;;;;;;;27.82;49.80;99203.44;5122056;28;20023;-73
2021/08/18 07:20:51;;;;;;;27.38;11.18;;;;;;;28.05;50.42;99205.63;5122310;28;20032;-73
2021/08/18 07:23:37;;;;;;;21.10;10.88;;;;;;;28.08;50.17;99194.66;5121034;28;20228;-73
2021/08/18 07:26:27;;;;;;;21.95;11.25;;;;;;;28.24;50.24;99209.88;5122915;28;20055;-74
2021/08/18 07:29:13;;;;;;;14.85;10.38;;;;;;;28.33;49.90;99198.28;5122753;28;20031;-73
2021/08/18 07:31:59;;;;;;;17.85;10.43;;;;;;;28.39;49.78;99197.63;5109054;28;20039;-73
2021/08/18 07:34:46;;;;;;;14.85;10.18;;;;;;;28.43;49.76;99190.13;5121684;28;20059;-73
2021/08/18 07:37:32;;;;;;;20.77;11.43;;;;;;;28.48;49.43;99200.34;5123030;28;20020;-73
2021/08/18 07:40:18;;;;;;;21.10;9.80;;;;;;;28.42;48.28;99191.16;5123083;28;20400;-72
2021/08/18 07:43:04;;;;;;;22.23;11.20;;;;;;;28.53;49.11;99200.66;5122420;28;20031;-72
2021/08/18 07:45:50;;;;;;;21.77;9.88;;;;;;;28.51;48.56;99194.69;5123015;28;20054;-73
2021/08/18 07:48:36;;;;;;;17.85;10.88;;;;;;;28.55;47.68;99193.38;5108656;28;20109;-72
2021/08/18 07:51:22;;;;;;;15.68;9.50;;;;;;;28.58;48.46;99198.38;5123290;28;20028;-73
2021/08/18 07:54:08;;;;;;;13.38;9.45;;;;;;;28.61;49.21;99195.38;5121826;28;20027;-73
2021/08/18 07:56:54;;;;;;;18.20;9.20;;;;;;;28.55;48.55;99196.84;5122472;28;20034;-72
2021/08/18 07:59:40;;;;;;;22.15;10.73;;;;;;;28.59;47.15;99198.19;5121165;28;20356;-74
2021/08/18 08:02:26;;;;;;;13.85;9.48;;;;;;;28.59;48.06;99192.06;5127426;28;20383;-74
2021/08/18 08:05:14;;;;;;;17.25;9.23;;;;;;;28.69;47.89;99194.59;5120893;28;20032;-74
2021/08/18 08:08:00;;;;;;;17.25;9.43;;;;;;;28.74;48.26;99193.09;5126420;28;20343;-73
2021/08/18 08:10:46;;;;;;;17.30;10.05;;;;;;;28.81;47.97;99193.28;5127504;28;20110;-73
2021/08/18 08:13:32;;;;;;;18.50;10.15;;;;;;;28.75;47.19;99191.28;5127138;28;20023;-73
2021/08/18 08:16:18;;;;;;;17.52;9.85;;;;;;;28.79;47.54;99194.44;5126339;28;20085;-74
2021/08/18 08:19:04;;;;;;;16.05;9.93;;;;;;;28.84;48.28;99187.63;5126568;28;20039;-74
2021/08/18 08:21:50;;;;;;;18.77;9.82;;;;;;;28.79;47.22;99192.63;5127022;28;20020;-74
2021/08/18 08:24:36;;;;;;;15.52;9.48;;;;;;;28.87;47.39;99181.16;5125784;28;20030;-74
2021/08/18 08:27:22;;;;;;;21.25;9.90;;;;;;;28.98;47.39;99202.16;5126936;28;20049;-74
2021/08/18 08:30:08;;;;;;;16.55;9.77;;;;;;;28.80;47.76;99198.78;5121210;28;20047;-72
2021/08/18 08:32:54;;;;;;;14.15;9.73;;;;;;;28.87;47.29;99189.13;5106381;28;20028;-74
2021/08/18 08:35:41;;;;;;;15.40;10.10;;;;;;;28.88;46.84;99180.16;5105645;28;20028;-74
2021/08/18 08:38:27;;;;;;;21.27;9.70;;;;;;;29.00;47.49;99186.00;5105390;28;20024;-74
2021/08/18 08:41:15;;;;;;;16.80;9.40;;;;;;;29.08;47.33;99176.16;5105045;28;20087;-71
2021/08/18 08:44:02;;;;;;;14.02;10.18;;;;;;;29.08;47.47;99189.50;5105801;28;20325;-73
2021/08/18 08:46:49;;;;;;;20.88;9.55;;;;;;;29.07;46.96;99182.53;5112773;28;20030;-72
2021/08/18 08:49:35;;;;;;;19.05;8.95;;;;;;;29.07;46.97;99187.84;5120549;28;20024;-72
2021/08/18 08:52:21;;;;;;;17.70;10.38;;;;;;;29.09;47.59;99182.34;5115877;28;20032;-76
2021/08/18 08:55:07;;;;;;;17.45;9.45;;;;;;;29.13;47.94;99188.19;5117553;28;20194;-73
2021/08/18 08:57:56;;;;;;;14.63;9.05;;;;;;;29.19;46.24;99187.53;5118533;28;20119;-72
2021/08/18 09:00:42;;;;;;;12.60;8.82;;;;;;;29.27;45.84;99185.72;5118664;28;20058;-71
2021/08/18 09:03:28;;;;;;;15.43;9.35;;;;;;;29.27;45.71;99184.88;5123487;28;20093;-71
2021/08/18 09:06:21;;;;;;;18.25;9.27;;;;;;;29.14;46.62;99168.50;5123410;28;20038;-73
2021/08/18 09:09:07;;;;;;;15.85;9.10;;;;;;;29.17;45.13;99185.00;5125762;28;20062;-70
2021/08/18 09:12:08;;;;;;;20.33;9.90;;;;;;;29.25;45.50;99173.56;5125025;28;20027;-72
2021/08/18 09:14:54;;;;;;;21.83;9.98;;;;;;;29.53;45.96;99178.53;5125463;28;20098;-72
2021/08/18 09:17:41;;;;;;;22.08;11.20;;;;;;;29.70;45.14;99166.84;5125323;28;20028;-69
2021/08/18 09:20:29;;;;;;;25.85;9.95;;;;;;;29.88;45.36;99169.34;5125923;28;20088;-70
2021/08/18 09:23:14;;;;;;;25.10;10.65;;;;;;;29.75;44.14;99159.16;5124913;28;20039;-69
2021/08/18 09:26:19;;;;;;;20.73;10.63;;;;;;;29.66;44.56;99121.97;5124287;28;20058;-72
2021/08/18 09:29:05;;;;;;;23.75;11.02;;;;;;;30.09;44.86;99157.28;5125791;28;20031;-71
2021/08/18 09:31:51;;;;;;;22.92;10.00;;;;;;;30.24;45.42;99157.38;5110201;28;20121;-69
2021/08/18 09:34:50;;;;;;;15.20;10.07;;;;;;;30.09;44.17;99118.03;5125094;28;20055;-73
2021/08/18 09:37:42;;;;;;;20.60;10.30;;;;;;;30.43;43.50;99169.53;5124319;27;20095;-67
2021/08/18 09:40:58;;;;;;;19.27;10.45;;;;;;;30.37;44.44;99155.00;5124265;28;20352;-69
2021/08/18 09:43:44;;;;;;;19.02;10.68;;;;;;;30.51;46.70;99155.28;5118112;28;20039;-68
2021/08/18 09:46:34;;;;;;;15.75;9.25;;;;;;;30.37;42.69;99149.66;5124517;28;20063;-72
2021/08/18 09:49:20;;;;;;;21.63;10.15;;;;;;;30.32;42.47;99156.53;5125280;28;20118;-70
2021/08/18 09:52:06;;;;;;;15.80;9.15;;;;;;;30.29;43.13;99142.47;5123386;28;20030;-70
2021/08/18 09:54:52;;;;;;;14.88;9.25;;;;;;;30.23;44.55;99145.00;5123570;28;20098;-70
2021/08/18 09:57:38;;;;;;;13.93;9.55;;;;;;;30.12;43.17;99146.25;5109417;28;20335;-70
2021/08/18 10:00:24;;;;;;;16.75;10.70;;;;;;;30.26;44.83;99152.72;5120345;28;20050;-72
2021/08/18 10:03:12;;;;;;;14.88;9.90;;;;;;;30.34;44.23;99147.31;5123463;28;20035;-73
2021/08/18 10:05:58;;;;;;;14.10;8.77;;;;;;;30.49;44.96;99146.63;5114026;28;20024;-73
2021/08/18 10:08:46;;;;;;;16.77;10.60;;;;;;;30.54;43.57;99146.91;5124095;28;20050;-71
2021/08/18 10:11:32;;;;;;;15.52;10.18;;;;;;;30.60;43.46;99148.91;5124338;28;20015;-71
2021/08/18 10:14:21;;;;;;;13.30;10.18;;;;;;;30.53;42.84;99126.53;5123439;28;20027;-73
2021/08/18 10:17:07;;;;;;;15.35;10.32;;;;;;;30.62;43.06;99136.19;5123478;28;20217;-73
2021/08/18 10:19:53;;;;;;;16.25;9.05;;;;;;;30.65;42.53;99138.50;5122838;28;20096;-71
2021/08/18 10:22:39;;;;;;;20.25;10.52;;;;;;;30.69;43.38;99126.44;5136870;27;20405;-73
2021/08/18 10:25:47;;;;;;;21.20;10.52;;;;;;;30.66;43.41;99125.94;5125416;27;20036;-71
2021/08/18 10:29:13;;;;;;;16.38;9.48;;;;;;;30.72;43.47;99119.91;5109853;28;20024;-73
2021/08/18 10:32:01;;;;;;;15.77;9.55;;;;;;;30.70;43.84;99117.41;5039188;28;20112;-72
2021/08/18 10:34:50;;;;;;;14.25;10.10;;;;;;;30.64;42.47;99121.63;5124880;27;20035;-70
2021/08/18 10:37:36;;;;;;;16.30;9.68;;;;;;;30.70;43.79;99109.41;5124606;28;20031;-71
2021/08/18 10:40:33;;;;;;;15.43;10.00;;;;;;;30.66;43.89;99078.66;5122437;28;20039;-71
2021/08/18 10:43:50;;;;;;;15.35;10.00;;;;;;;30.76;42.01;99106.00;5123856;28;20031;-70
2021/08/18 10:47:11;;;;;;;15.52;9.93;;;;;;;30.89;42.70;99104.59;5109394;28;20135;-73
2021/08/18 10:49:59;;;;;;;15.68;10.38;;;;;;;30.89;43.90;99107.25;5122159;28;20023;-72
2021/08/18 10:52:47;;;;;;;14.75;10.35;;;;;;;30.85;42.61;99088.03;5117169;28;20019;-72
2021/08/18 10:55:33;;;;;;;19.88;10.07;;;;;;;30.97;41.88;99094.66;5115965;28;20023;-71
2021/08/18 10:58:30;;;;;;;16.13;9.68;;;;;;;30.75;43.87;99047.34;5124126;28;20086;-71
2021/08/18 11:01:42;;;;;;;13.45;9.82;;;;;;;31.03;42.68;99093.13;5123794;28;20113;-73
2021/08/18 11:04:47;;;;;;;;;;;;;;;31.06;40.72;99099.97;5122809;28;20095;-71
2021/08/18 11:08:09;;;;;;;17.10;8.50;;;;;;;31.12;39.41;99086.69;5122433;28;20094;-70
2021/08/18 11:10:55;;;;;;;13.90;9.68;;;;;;;31.19;40.51;99085.97;5122309;28;20032;-70
2021/08/18 11:14:05;;;;;;;15.13;9.15;;;;;;;31.02;39.58;99083.44;5122385;28;20027;-71
2021/08/18 11:16:52;;;;;;;12.40;9.75;;;;;;;31.02;41.43;99088.78;5123273;28;20103;-71
2021/08/18 11:19:47;;;;;;;14.30;9.50;;;;;;;31.03;41.42;99090.44;5120855;28;20369;-71
2021/08/18 11:22:33;;;;;;;14.00;9.35;;;;;;;30.96;40.86;99078.78;5123583;28;20035;-71
2021/08/18 11:25:19;;;;;;;11.80;9.10;;;;;;;30.83;41.74;99074.03;5122480;28;20047;-72
2021/08/18 11:28:05;;;;;;;17.05;8.93;;;;;;;30.78;42.97;99065.72;5122439;28;20321;-72
2021/08/18 11:31:00;;;;;;;10.80;9.05;;;;;;;30.81;41.71;99068.03;5123671;28;20321;-73
2021/08/18 11:33:45;;;;;;;17.35;9.35;;;;;;;30.86;41.65;99068.31;5123173;28;20194;-73
2021/08/18 11:36:36;;;;;;;12.32;9.02;;;;;;;30.93;41.78;99060.41;5121203;28;20338;-73
2021/08/18 11:39:22;;;;;;;11.55;8.93;;;;;;;30.92;42.50;99062.25;5123523;28;20069;-71
2021/08/18 11:42:15;;;;;;;14.63;9.00;;;;;;;30.88;41.21;99054.78;5122240;28;20033;-73
2021/08/18 11:45:15;;;;;;;11.60;8.32;;;;;;;30.77;41.77;99015.91;5121778;28;20098;-73
2021/08/18 11:48:09;;;;;;;13.77;8.88;;;;;;;30.90;41.78;99031.34;5118625;28;20343;-73
2021/08/18 11:50:58;;;;;;;11.48;8.02;;;;;;;30.97;41.64;99051.84;5123212;28;20035;-72
2021/08/18 11:53:52;;;;;;;10.40;8.35;;;;;;;30.96;40.46;99038.66;5122782;28;20031;-73
2021/08/18 11:56:38;;;;;;;12.98;8.55;;;;;;;30.96;41.13;99038.66;5121777;28;20020;-71
2021/08/18 11:59:24;;;;;;;10.57;7.93;;;;;;;31.07;42.35;99050.78;5122011;28;20360;-72
2021/08/18 12:02:10;;;;;;;12.93;8.35;;;;;;;31.15;41.48;99043.53;5106531;28;20336;-72
2021/08/18 12:05:02;;;;;;;12.77;8.32;;;;;;;30.93;41.71;99018.44;5122633;28;20034;-73
2021/08/18 12:07:48;;;;;;;11.15;8.13;;;;;;;31.10;42.20;99037.88;5122391;28;20170;-71
2021/08/18 12:10:38;;;;;;;10.65;8.18;;;;;;;31.11;42.81;99031.53;5122119;28;20313;-71
2021/08/18 12:13:24;;;;;;;10.98;8.20;;;;;;;31.09;42.20;99022.00;5122516;28;20020;-72
2021/08/18 12:16:28;;;;;;;10.38;8.38;;;;;;;31.13;41.59;99020.66;5120451;28;20078;-73
2021/08/18 12:19:23;;;;;;;11.00;8.25;;;;;;;31.00;41.47;98986.47;5122348;28;20271;-70
2021/08/18 12:22:28;;;;;;;13.23;7.65;;;;;;;31.23;39.97;99015.03;5123635;28;20057;-72
2021/08/18 12:25:14;;;;;;;12.93;8.18;;;;;;;31.19;41.65;99000.34;5142366;28;20633;-72
2021/08/18 12:28:20;;;;;;;12.23;7.90;;;;;;;31.27;40.62;99005.59;5141852;28;20030;-73
2021/08/18 12:31:06;;;;;;;11.65;7.95;;;;;;;31.28;41.87;99001.91;5137107;28;20030;-71
2021/08/18 12:34:08;;;;;;;10.98;7.65;;;;;;;31.20;40.69;98997.50;5120119;28;20036;-71
2021/08/18 12:36:59;;;;;;;8.07;6.82;;;;;;;31.06;39.76;98999.13;5115920;28;20047;-73
2021/08/18 12:39:58;;;;;;;9.03;7.87;;;;;;;31.05;40.37;98997.47;5122246;28;20089;-72
2021/08/18 12:42:53;;;;;;;10.23;7.63;;;;;;;30.97;40.63;98978.81;5121841;28;20503;-72
2021/08/18 12:45:48;;;;;;;12.07;7.97;;;;;;;30.84;40.19;98965.22;5122072;28;20025;-72
2021/08/18 12:48:33;;;;;;;12.70;8.18;;;;;;;30.89;40.74;98987.72;5125012;28;20027;-73
2021/08/18 12:51:19;;;;;;;13.23;7.75;;;;;;;30.98;40.91;98983.97;5125801;28;20051;-73
2021/08/18 12:54:05;;;;;;;9.70;7.35;;;;;;;31.02;39.79;98981.78;5124423;28;20032;-71
2021/08/18 12:56:53;;;;;;;13.35;8.02;;;;;;;31.09;40.64;98973.88;5125984;28;20027;-73